Flight Track Log - Related Links

Times and Time Zones

All times are in EDT time to prevent confusion due to time zone crossing. See the SWA232 flight status page for this flight to view local times or setup timezone preferences in your user account.


Time Position Orientation Groundspeed Altitude Reporting Facility
EDT Latitude Longitude Course Direction KTS MPH feet Rate Location/Type
Wed 09:56:31 AM 41.8000 -87.8000 246° West 175 201 2,100  Level Chicago TRACON
Wed 09:57:19 AM 41.7833 -87.8500 246° West 228 262 3,600 2,111 Climbing Chicago TRACON
Wed 09:58:19 AM 41.7536 -87.9350 245° Southwest 237 273 5,900 2,705 Climbing Chicago Center
Wed 09:59:21 AM 41.7492 -88.0414 267° West 285 328 9,100 2,903 Climbing Chicago Center
Wed 10:00:23 AM 41.7800 -88.1372 293° West 286 329 11,900 1,597 Climbing Chicago Center
Wed 10:01:25 AM 41.7794 -88.2678 270° West 299 344 12,400 960 Climbing Chicago Center
Wed 10:02:28 AM 41.7753 -88.3944 268° West 344 396 13,900 1,872 Climbing Chicago Center
Wed 10:03:30 AM 41.7697 -88.5294 267° West 364 419 16,300 2,226 Climbing Chicago Center
Wed 10:04:32 AM 41.7592 -88.6728 264° West 383 441 18,500 2,129 Climbing Chicago Center
Wed 10:05:34 AM 41.7269 -88.8161 253° West 402 463 20,700 2,226 Climbing Chicago Center
Wed 10:06:36 AM 41.6886 -88.9906 254° West 409 471 23,100 1,984 Climbing Chicago Center
Wed 10:07:38 AM 41.6567 -89.1389 254° West 416 479 24,800 1,597 Climbing Chicago Center
Wed 10:08:40 AM 41.6250 -89.2917 255° West 429 494 26,400 1,500 Climbing Chicago Center
Wed 10:09:42 AM 41.5911 -89.4464 254° West 435 501 27,900 1,403 Climbing Chicago Center
Wed 10:10:44 AM 41.5553 -89.6067 253° West 437 503 29,300 1,452 Climbing Chicago Center
Wed 10:11:46 AM 41.5214 -89.7625 254° West 439 505 30,900 1,548 Climbing Chicago Center
Wed 10:12:48 AM 41.4792 -89.9461 253° West 433 498 32,500 1,306 Climbing Chicago Center
Wed 10:13:50 AM 41.4456 -90.0986 254° West 432 497 33,600 1,016 Climbing Chicago Center
Wed 10:14:52 AM 41.4106 -90.2542 253° West 439 505 34,600 1,161 Climbing Chicago Center
Wed 10:15:54 AM 41.3761 -90.4047 253° West 430 495 36,000 677 Climbing Chicago Center
Wed 10:16:56 AM 41.3392 -90.5528 252° West 424 488 36,000  Level Chicago Center
Wed 10:17:59 AM 41.2806 -90.6972 242° Southwest 442 509 36,000  Level Chicago Center
Wed 10:19:01 AM 41.2158 -90.8661 243° Southwest 434 499 36,000  Level Chicago Center
Wed 10:20:03 AM 41.1628 -91.0056 243° Southwest 428 493 36,000  Level Chicago Center
Wed 10:21:05 AM 41.1125 -91.1422 244° Southwest 418 481 36,000  Level Chicago Center
Wed 10:22:07 AM 41.0797 -91.2867 253° West 410 472 36,000  Level Chicago Center
Wed 10:23:09 AM 41.0442 -91.4292 252° West 408 470 36,000  Level Chicago Center
Wed 10:24:11 AM 41.0025 -91.5989 252° West 406 467 36,000  Level Chicago Center
Wed 10:25:13 AM 40.9733 -91.7211 252° West 403 464 36,000  Level Chicago Center
Wed 10:26:15 AM 40.9322 -91.8875 252° West 401 461 36,000  Level Chicago Center
Wed 10:27:17 AM 40.8969 -92.0253 251° West 401 461 36,000  Level Chicago Center
Wed 10:28:19 AM 40.8636 -92.1653 253° West 403 464 36,000  Level Chicago Center
Wed 10:29:21 AM 40.8269 -92.3025 251° West 402 463 36,000  Level Chicago Center
Wed 10:30:24 AM 40.7933 -92.4397 252° West 401 461 36,000  Level Chicago Center
Wed 10:31:26 AM 40.7519 -92.6025 251° West 398 458 36,000  Level Chicago Center
Wed 10:32:28 AM 40.7183 -92.7372 252° West 395 455 36,000  Level Chicago Center
Wed 10:33:30 AM 40.6828 -92.8717 251° West 395 455 36,000  Level Chicago Center
Wed 10:34:32 AM 40.6486 -93.0056 251° West 392 451 36,000  Level Chicago Center
Wed 10:35:34 AM 40.6064 -93.1658 251° West 392 451 36,000  Level Chicago Center
Wed 10:36:36 AM 40.5733 -93.3003 252° West 392 451 36,000  Level Chicago Center
Wed 10:37:38 AM 40.5347 -93.4342 249° West 394 453 36,000  Level Chicago Center
Wed 10:38:10 AM 40.5144 -93.5128 251° West 392 451 36,000  Level Minneapolis Center
Wed 10:39:12 AM 40.4803 -93.6469 252° West 391 450 36,000  Level Minneapolis Center
Wed 10:40:14 AM 40.4425 -93.7789 249° West 390 449 36,000  Level Minneapolis Center
Wed 10:41:16 AM 40.4072 -93.9131 251° West 388 447 36,000  Level Minneapolis Center
Wed 10:42:18 AM 40.3647 -94.0681 250° West 387 445 36,000  Level Minneapolis Center
Wed 10:42:54 AM 40.3469 -94.1456 253° West 386 444 36,000  Level Kansas City Center
Wed 10:43:56 AM 40.3122 -94.2700 250° West 387 445 36,000  Level Kansas City Center
Wed 10:44:58 AM 40.2722 -94.4172 250° West 386 444 36,000  Level Kansas City Center
Wed 10:45:24 AM 40.2578 -94.4606 246° West 385 443 36,000  Level Minneapolis Center
Wed 10:46:25 AM 40.2194 -94.5992 250° West 382 440 36,000  Level Minneapolis Center
Wed 10:47:27 AM 40.1836 -94.7314 251° West 384 442 36,000  Level Minneapolis Center
Wed 10:48:29 AM 40.1469 -94.8636 250° West 385 443 36,000  Level Minneapolis Center
Wed 10:49:06 AM 40.1197 -94.9619 250° West 389 448 36,000  Level Kansas City Center
Wed 10:50:07 AM 40.0836 -95.0914 250° West 390 449 36,000  Level Kansas City Center
Wed 10:52:11 AM 40.0056 -95.3669 250° West 395 455 36,000  Level Kansas City Center
Wed 10:52:37 AM 39.9875 -95.4289 249° West 397 457 36,000  Level Minneapolis Center
Wed 10:54:15 AM 39.9258 -95.6461 250° West 397 457 36,000  Level Kansas City Center
Wed 10:55:17 AM 39.8892 -95.7761 250° West 398 458 36,000  Level Kansas City Center
Wed 10:56:19 AM 39.8428 -95.9292 249° West 405 466 36,000  Level Kansas City Center
Wed 10:57:21 AM 39.8056 -96.0575 249° West 400 460 36,000  Level Kansas City Center
Wed 10:58:23 AM 39.7614 -96.2083 249° West 402 463 36,000  Level Kansas City Center
Wed 10:59:24 AM 39.7236 -96.3367 249° West 399 459 36,000  Level Kansas City Center
Wed 11:00:26 AM 39.6797 -96.4850 249° West 396 456 36,000  Level Kansas City Center
Wed 11:01:28 AM 39.6419 -96.6122 249° West 395 455 36,000  Level Kansas City Center
Wed 11:02:30 AM 39.5981 -96.7586 249° West 392 451 36,000  Level Kansas City Center
Wed 11:03:32 AM 39.5561 -96.8958 248° West 394 453 36,000  Level Kansas City Center
Wed 11:04:34 AM 39.5161 -97.0328 249° West 393 452 36,000  Level Kansas City Center
Wed 11:05:36 AM 39.4775 -97.1592 248° West 394 453 36,000  Level Kansas City Center
Wed 11:06:37 AM 39.4314 -97.3086 248° West 399 459 36,000  Level Kansas City Center
Wed 11:07:39 AM 39.3919 -97.4358 248° West 400 460 36,000  Level Kansas City Center
Wed 11:08:41 AM 39.3517 -97.5672 248° West 400 460 36,000  Level Kansas City Center
Wed 11:09:43 AM 39.3103 -97.7022 248° West 404 465 36,000  Level Kansas City Center
Wed 11:10:45 AM 39.2681 -97.8378 248° West 405 466 36,000  Level Kansas City Center
Wed 11:11:48 AM 39.2214 -97.9897 248° West 407 468 36,000  Level Kansas City Center
Wed 11:12:49 AM 39.1783 -98.1256 248° West 409 471 36,000  Level Kansas City Center
Wed 11:13:51 AM 39.1350 -98.2611 248° West 411 473 36,000  Level Kansas City Center
Wed 11:14:53 AM 39.0917 -98.3983 248° West 416 479 36,000  Level Kansas City Center
Wed 11:15:55 AM 39.0406 -98.5589 248° West 408 470 36,000  Level Kansas City Center
Wed 11:16:57 AM 38.9969 -98.6939 247° West 410 472 36,000  Level Kansas City Center
Wed 11:17:59 AM 38.9542 -98.8286 248° West 408 470 36,000  Level Kansas City Center
Wed 11:19:01 AM 38.9103 -98.9611 247° West 405 466 36,000  Level Kansas City Center
Wed 11:19:25 AM 38.8933 -99.0128 247° West 403 464 36,000  Level Denver Center
Wed 11:20:03 AM 38.8669 -99.0942 247° West 405 466 36,000  Level Kansas City Center
Wed 11:21:04 AM 38.8247 -99.2253 248° West 401 461 36,000  Level Kansas City Center
Wed 11:22:06 AM 38.7722 -99.3825 247° West 401 461 36,000  Level Kansas City Center
Wed 11:22:31 AM 38.7561 -99.4325 248° West 399 459 36,000  Level Denver Center
Wed 11:23:45 AM 38.7136 -99.5553 246° West 396 456 36,000  Level Denver Center
Wed 11:24:48 AM 38.6581 -99.7244 247° West 404 465 36,000  Level Denver Center
Wed 11:25:50 AM 38.6083 -99.8692 246° West 399 459 36,000  Level Denver Center
Wed 11:26:15 AM 38.5956 -99.9128 249° West 401 461 36,000  Level Kansas City Center
Wed 11:26:52 AM 38.5675 -99.9953 247° West 401 461 36,000  Level Denver Center
Wed 11:27:54 AM 38.5181 -100.1400 246° West 399 459 36,000  Level Denver Center
Wed 11:29:26 AM 38.4536 -100.3269 246° West 401 461 36,000  Level Albuquerque Center
Wed 11:29:58 AM 38.4264 -100.4100 247° West 398 458 36,000  Level Denver Center
Wed 11:31:00 AM 38.3836 -100.5336 246° West 399 459 36,000  Level Denver Center
Wed 11:31:25 AM 38.3622 -100.5981 247° West 400 460 36,000  Level Kansas City Center
Wed 11:32:02 AM 38.3336 -100.6778 245° Southwest 398 458 36,000  Level Denver Center
Wed 11:33:04 AM 38.2919 -100.8003 247° West 397 457 36,000  Level Denver Center
Wed 11:34:06 AM 38.2422 -100.9428 246° West 395 455 36,000  Level Denver Center
Wed 11:35:08 AM 38.1992 -101.0625 245° Southwest 393 452 36,000  Level Denver Center
Wed 11:36:10 AM 38.1508 -101.2028 246° West 390 449 36,000  Level Denver Center
Wed 11:37:12 AM 38.1086 -101.3222 246° West 391 450 36,000  Level Denver Center
Wed 11:38:14 AM 38.0586 -101.4617 246° West 392 451 36,000  Level Denver Center
Wed 11:39:16 AM 38.0164 -101.5831 246° West 393 452 36,000  Level Denver Center
Wed 11:40:18 AM 37.9661 -101.7242 246° West 395 455 36,000  Level Denver Center
Wed 11:41:21 AM 37.9228 -101.8447 246° West 395 455 36,000  Level Denver Center
Wed 11:42:22 AM 37.8719 -101.9850 245° Southwest 393 452 36,000  Level Denver Center
Wed 11:43:24 AM 37.8278 -102.1044 245° Southwest 392 451 36,000  Level Denver Center
Wed 11:44:26 AM 37.7842 -102.2233 245° Southwest 390 449 36,000  Level Denver Center
Wed 11:45:29 AM 37.7339 -102.3622 245° Southwest 390 449 36,000  Level Denver Center
Wed 11:46:31 AM 37.6850 -102.4936 245° Southwest 390 449 36,000  Level Denver Center
Wed 11:47:33 AM 37.6419 -102.6139 246° West 392 451 36,000  Level Denver Center
Wed 11:48:35 AM 37.5906 -102.7539 245° Southwest 393 452 36,000  Level Denver Center
Wed 11:49:37 AM 37.5456 -102.8742 245° Southwest 396 456 36,000  Level Denver Center
Wed 11:50:39 AM 37.4942 -103.0142 245° Southwest 394 453 36,000  Level Denver Center
Wed 11:51:41 AM 37.4497 -103.1347 245° Southwest 396 456 36,000  Level Denver Center
Wed 11:52:42 AM 37.4114 -103.2353 244° Southwest 398 458 36,000  Level Denver Center
Wed 11:53:12 AM 37.3739 -103.3364 245° Southwest 398 458 36,000  Level Albuquerque Center
Wed 11:54:14 AM 37.3278 -103.4572 244° Southwest 399 459 36,000  Level Albuquerque Center
Wed 11:55:16 AM 37.2819 -103.5803 245° Southwest 403 464 36,000  Level Albuquerque Center
Wed 11:55:49 AM 37.2511 -103.6594 244° Southwest 399 459 36,000  Level Denver Center
Wed 11:56:51 AM 37.2050 -103.7808 245° Southwest 400 460 36,000  Level Denver Center
Wed 11:57:53 AM 37.1506 -103.9228 244° Southwest 401 461 36,000  Level Denver Center
Wed 11:58:55 AM 37.1025 -104.0442 244° Southwest 402 463 36,000  Level Denver Center
Wed 11:59:24 AM 37.0811 -104.1061 247° West 402 463 36,000  Level Albuquerque Center
Wed 12:00:26 PM 37.0322 -104.2272 243° Southwest 404 465 36,000  Level Albuquerque Center
Wed 12:01:28 PM 36.9778 -104.3675 244° Southwest 401 461 36,000  Level Albuquerque Center
Wed 12:02:01 PM 36.9544 -104.4289 245° Southwest 401 461 36,000  Level Denver Center
Wed 12:03:03 PM 36.8986 -104.5711 244° Southwest 405 466 36,000  Level Denver Center
Wed 12:03:32 PM 36.8744 -104.6297 243° Southwest 405 466 36,000  Level Albuquerque Center
Wed 12:04:34 PM 36.8264 -104.7522 244° Southwest 409 471 36,000  Level Albuquerque Center
Wed 12:05:36 PM 36.7708 -104.8919 244° Southwest 404 465 36,000  Level Albuquerque Center
Wed 12:06:37 PM 36.7225 -105.0125 243° Southwest 404 465 36,000  Level Albuquerque Center
Wed 12:07:39 PM 36.6717 -105.1419 244° Southwest 404 465 36,000  Level Albuquerque Center
Wed 12:08:41 PM 36.6200 -105.2717 244° Southwest 400 460 36,000  Level Albuquerque Center
Wed 12:09:43 PM 36.5736 -105.3906 244° Southwest 399 459 36,000  Level Albuquerque Center
Wed 12:10:45 PM 36.5181 -105.5256 243° Southwest 399 459 36,000  Level Albuquerque Center
Wed 12:11:47 PM 36.4656 -105.6506 242° Southwest 406 467 36,000  Level Albuquerque Center
Wed 12:12:49 PM 36.4144 -105.7781 244° Southwest 411 473 36,000  Level Albuquerque Center
Wed 12:13:51 PM 36.3642 -105.9056 244° Southwest 413 475 36,000  Level Albuquerque Center
Wed 12:14:53 PM 36.3131 -106.0322 243° Southwest 413 475 36,000  Level Albuquerque Center
Wed 12:15:55 PM 36.2500 -106.1833 243° Southwest 411 473 36,000  Level Albuquerque Center
Wed 12:16:57 PM 36.2025 -106.2972 243° Southwest 409 471 36,000  Level Albuquerque Center
Wed 12:17:59 PM 36.1458 -106.4317 242° Southwest 408 470 36,000  Level Albuquerque Center
Wed 12:19:01 PM 36.0939 -106.5575 243° Southwest 410 472 36,000  Level Albuquerque Center
Wed 12:20:02 PM 36.0422 -106.6811 243° Southwest 408 470 36,000  Level Albuquerque Center
Wed 12:21:04 PM 35.9903 -106.8031 242° Southwest 404 465 36,000  Level Albuquerque Center
Wed 12:22:06 PM 35.9286 -106.9506 243° Southwest 405 466 36,000  Level Albuquerque Center
Wed 12:23:08 PM 35.8786 -107.0692 243° Southwest 405 466 36,000 -387 Level Albuquerque Center
Wed 12:24:10 PM 35.8200 -107.2061 242° Southwest 404 465 35,200 -871 Descending Albuquerque Center
Wed 12:25:12 PM 35.7728 -107.3194 243° Southwest 394 453 34,200 -581 Descending Albuquerque Center
Wed 12:26:14 PM 35.7161 -107.4475 241° Southwest 385 443 34,000 -96 Descending Albuquerque Center
Wed 12:27:17 PM 35.6697 -107.5589 243° Southwest 382 440 34,000  Level Albuquerque Center
Wed 12:28:19 PM 35.6222 -107.6706 242° Southwest 383 441 34,000  Level Albuquerque Center
Wed 12:29:21 PM 35.5653 -107.8008 242° Southwest 386 444 34,000  Level Albuquerque Center
Wed 12:30:23 PM 35.5167 -107.9139 242° Southwest 389 448 34,000  Level Albuquerque Center
Wed 12:31:25 PM 35.4642 -108.0461 244° Southwest 387 445 34,000  Level Albuquerque Center
Wed 12:32:27 PM 35.4181 -108.1575 243° Southwest 382 440 34,000  Level Albuquerque Center
Wed 12:33:29 PM 35.3650 -108.2894 244° Southwest 384 442 34,000  Level Albuquerque Center
Wed 12:34:31 PM 35.3186 -108.4036 244° Southwest 387 445 34,000  Level Albuquerque Center
Wed 12:35:33 PM 35.2636 -108.5364 243° Southwest 388 447 34,000  Level Albuquerque Center
Wed 12:36:35 PM 35.2156 -108.6508 243° Southwest 391 450 34,000  Level Albuquerque Center
Wed 12:37:37 PM 35.1686 -108.7653 243° Southwest 392 451 34,000  Level Albuquerque Center
Wed 12:38:39 PM 35.1136 -108.8992 243° Southwest 393 452 34,000  Level Albuquerque Center
Wed 12:39:41 PM 35.0664 -109.0139 243° Southwest 393 452 34,000  Level Albuquerque Center
Wed 12:40:43 PM 35.0106 -109.1456 243° Southwest 391 450 34,000  Level Albuquerque Center
Wed 12:41:45 PM 34.9633 -109.2583 243° Southwest 390 449 34,000  Level Albuquerque Center
Wed 12:42:47 PM 34.9083 -109.3892 243° Southwest 387 445 34,000  Level Albuquerque Center
Wed 12:43:49 PM 34.8603 -109.4989 242° Southwest 385 443 34,000  Level Albuquerque Center
Wed 12:44:51 PM 34.8044 -109.6272 242° Southwest 382 440 34,000  Level Albuquerque Center
Wed 12:45:53 PM 34.7578 -109.7403 243° Southwest 388 447 34,000 -919 Level Albuquerque Center
Wed 12:46:55 PM 34.7017 -109.8686 242° Southwest 387 445 32,100 -960 Descending Albuquerque Center
Wed 12:47:58 PM 34.6603 -109.9819 246° West 382 440 32,000 -48 Descending Albuquerque Center
Wed 12:49:00 PM 34.6133 -110.1164 247° West 388 447 32,000  Level Albuquerque Center
Wed 12:50:02 PM 34.5736 -110.2317 247° West 388 447 32,000  Level Albuquerque Center
Wed 12:51:04 PM 34.5278 -110.3381 242° Southwest 375 432 32,000  Level Albuquerque Center
Wed 12:52:06 PM 34.4842 -110.4614 247° West 385 443 32,000  Level Albuquerque Center
Wed 12:53:08 PM 34.4444 -110.5756 247° West 372 428 32,000 -1,161 Level Albuquerque Center
Wed 12:54:10 PM 34.3936 -110.7047 245° Southwest 356 410 29,600 -1,935 Descending Albuquerque Center
Wed 12:55:12 PM 34.3469 -110.8050 241° Southwest 346 398 28,000 -1,500 Descending Albuquerque Center
Wed 12:56:14 PM 34.2842 -110.8878 227° Southwest 335 386 26,500 -1,645 Descending Albuquerque Center
Wed 12:57:16 PM 34.2197 -110.9700 227° Southwest 335 386 24,600 -1,887 Descending Albuquerque Center
Wed 12:58:18 PM 34.1542 -111.0553 227° Southwest 342 394 22,600 -1,887 Descending Albuquerque Center
Wed 12:59:20 PM 34.0861 -111.1419 227° Southwest 351 404 20,700 -1,984 Descending Albuquerque Center
Wed 01:00:22 PM 34.0069 -111.2444 227° Southwest 349 402 18,500 -1,984 Descending Albuquerque Center
Wed 01:01:24 PM 33.9433 -111.3261 227° Southwest 338 389 16,600 -1,452 Descending Albuquerque Center
Wed 01:02:26 PM 33.8808 -111.4069 227° Southwest 331 381 15,500 -1,258 Descending Albuquerque Center
Wed 01:03:28 PM 33.8361 -111.4894 237° Southwest 297 342 14,000 -1,500 Descending Albuquerque Center
Wed 01:04:30 PM 33.7931 -111.5722 238° Southwest 291 335 12,400 -1,500 Descending Albuquerque Center
Wed 01:05:32 PM 33.7508 -111.6533 238° Southwest 285 328 10,900 -1,161 Descending Albuquerque Center
Wed 01:06:34 PM 33.7092 -111.7314 237° Southwest 279 321 10,000 -435 Descending Albuquerque Center
Wed 01:07:36 PM 33.6672 -111.8078 237° Southwest 274 315 10,000 -435 Level Albuquerque Center
Wed 01:08:38 PM 33.6189 -111.8961 237° Southwest 265 305 9,100 -528 Descending Albuquerque Center
Wed 01:09:41 PM 33.5825 -111.9644 237° Southwest 249 287 8,900 -672 Descending Albuquerque Center
Wed 01:10:43 PM 33.5500 -112.0275 238° Southwest 229 264 7,700 -1,065 Descending Albuquerque Center
Wed 01:11:45 PM 33.5256 -112.0975 247° West 234 269 6,700 -1,210 Descending Albuquerque Center
Wed 01:12:47 PM 33.5258 -112.1733 270° West 229 264 5,200 -1,210 Descending Albuquerque Center
Wed 01:13:49 PM 33.4833 -112.1972 205° Southwest 216 249 4,200 -968 Descending Albuquerque Center
Wed 01:14:51 PM 33.4483 -112.1361 124° Southeast 192 221 3,200 -1,065 Descending Albuquerque Center
Wed 01:15:53 PM 33.4422 -112.0806 97° East 180 207 2,000 -968 Descending Albuquerque Center
Wed 01:16:55 PM 33.4417 -112.0289 91° East 166 191 1,200 -774 Descending Albuquerque Center

Login

Don't have an account? Register now (free) for customized features, flight alerts, and more!